首页
METAR-TAF:

METAR-TAF

机场 :

圣路易, 塞内加尔

纬度: 16-03N, 经度: 016-27W, 海拔: 4米

当前天气观测

该预报发布于1小时和6分钟前的04:00 UTC
风速8节,风向西,在西西北之间变化
温度 24°C
湿度 78%
气压 1013 hPa
能见度10公里或以上
1500米以下无云,无积雨云

METAR: GOSS 280400Z 28008KT 260V320 CAVOK 24/20 Q1013

时间: 05:06 (05:06 UTC)

预报

该预报发布于6小时和6分钟前的23:00 UTC
预报有效从28日的 00点(UTC)到 28日的 24点(UTC)
风速6节,风向西
能见度10公里或以上
1500米以下无云,无积雨云

TAF: GOSS 272300Z 2800/2824 28006KT CAVOK

超过4000个机场的气象观测和天气预报(METAR&TAF报告)。

可查询的气象台以黄色和红色小点在地图上表示。

将鼠标移到小点上方,可查看气象台名称。

然后点击查看天气观测和预报。

如需切换地图:点击带黑十字的绿色按钮放大地图;点击带横线的绿色按钮缩小地图;或者点击绿色箭头查看邻近地区的地图。


METAR-TAF: